This demonstration page uses our WeatherBlox Daily Observations layout. Learn more.

41.55636, -103.73856

Hourly Observations for December 19, 2015

Temp ( °F °C ) Dew Point ( °F °C ) Humidity (%) Winds ( mph kmh ) Pressure ( in mb ) Visibility ( mi km ) Precip ( " mm )
12:53 am 00:53 Clear 18 -8 14 -10 86 86 Calm 30.27 1025 10 16.09344 0 0
1:53 am 01:53 Clear 16 -9 12 -11 86 86 ENE 6 9 30.3 1026 10 16.09344 0 0
2:53 am 02:53 Clear 16 -9 10 -12 79 79 E 6 9 30.3 1026 10 16.09344 0 0
3:53 am 03:53 Clear 12 -11 9 -13 85 85 Calm 30.33 1027 9 14.484096 0 0
4:53 am 04:53 Clear 16 -9 12 -11 86 86 E 3 6 30.27 1025 10 16.09344 0 0
5:53 am 05:53 Clear 12 -11 10 -12 92 92 Calm 30.3 1026 10 16.09344 0 0
6:53 am 06:53 Clear 12 -11 9 -13 85 85 NNE 6 9 30.3 1026 10 16.09344 0 0
7:53 am 07:53 Sunny 12 -11 9 -13 85 85 Calm 30.3 1026 10 16.09344 0 0
8:53 am 08:53 Sunny 16 -9 12 -11 86 86 N 3 6 30.27 1025 10 16.09344 0 0
9:53 am 09:53 Sunny 25 -4 18 -8 74 74 Calm 30.18 1022 9 14.484096 0 0
10:53 am 10:53 Sunny 27 -3 19 -7 74 74 Calm 30.12 1020 10 16.09344 0 0
11:53 am 11:53 Sunny 28 -2 21 -6 74 74 Calm 30.06 1018 10 16.09344 0 0
12:53 pm 12:53 Sunny 34 1 21 -6 60 60 Calm 30 1016 10 16.09344 0 0
1:53 pm 13:53 Sunny 36 2 21 -6 56 56 ESE 7 11 29.94 1014 10 16.09344 0 0
2:53 pm 14:53 Sunny 34 1 25 -4 70 70 SE 5 7 29.94 1014 10 16.09344 0 0
3:53 pm 15:53 Sunny 28 -2 21 -6 74 74 Calm 30 1016 10 16.09344 0 0
4:53 pm 16:53 Clear 28 -2 19 -7 69 69 SSE 6 9 30 1016 10 16.09344 0 0
5:53 pm 17:53 Clear 21 -6 18 -8 86 86 ENE 5 7 30.06 1018 10 16.09344 0 0
6:53 pm 18:53 Clear 19 -7 16 -9 86 86 ENE 7 11 30.06 1018 10 16.09344 0 0
7:53 pm 19:53 Clear 19 -7 16 -9 86 86 ENE 3 6 30.06 1018 10 16.09344 0 0
8:53 pm 20:53 Clear 18 -8 14 -10 86 86 N 5 7 30.06 1018 10 16.09344 0 0
9:53 pm 21:53 Clear 19 -7 16 -9 86 86 NW 5 7 30.03 1017 9 14.484096 0 0
10:53 pm 22:53 Clear 21 -6 18 -8 86 86 NNW 9 15 30 1016 8 12.874752 0 0
11:53 pm 23:53 Clear 19 -7 18 -8 93 93 NW 6 9 29.97 1015 9 14.484096 0 0

Powered by AerisWeather